createdAt,value
2023-04-22T00:02:29.673Z,10.16
2023-04-22T00:07:31.472Z,10.15
2023-04-22T00:12:34.406Z,10.19
2023-04-22T00:17:36.058Z,10.09
2023-04-22T00:22:37.729Z,10.19
2023-04-22T00:27:39.380Z,10.04
2023-04-22T00:32:41.045Z,9.77
2023-04-22T00:37:43.388Z,9.70
2023-04-22T00:42:45.853Z,9.54
2023-04-22T00:47:48.638Z,9.50
2023-04-22T00:52:50.692Z,9.40
2023-04-22T00:57:55.053Z,9.39
2023-04-22T01:02:58.011Z,9.39
2023-04-22T01:08:00.230Z,9.37
2023-04-22T01:13:01.890Z,9.33
2023-04-22T01:18:04.678Z,9.38
2023-04-22T01:23:10.145Z,9.43
2023-04-22T01:28:15.102Z,9.29
2023-04-22T01:33:17.380Z,9.26
2023-04-22T01:38:19.319Z,9.03
2023-04-22T01:43:21.019Z,8.99
2023-04-22T01:48:22.665Z,9.01
2023-04-22T01:53:24.861Z,8.91
2023-04-22T01:58:30.896Z,8.99
2023-04-22T02:03:32.953Z,8.92
2023-04-22T02:08:34.863Z,9.01
2023-04-22T02:13:38.269Z,8.88
2023-04-22T02:18:39.930Z,8.77
2023-04-22T02:23:43.149Z,8.89
2023-04-22T02:28:44.819Z,8.91
2023-04-22T02:33:46.421Z,8.76
2023-04-22T02:38:48.039Z,8.85
2023-04-22T02:43:49.907Z,8.97
2023-04-22T02:48:51.676Z,8.95
2023-04-22T02:53:53.507Z,8.74
2023-04-22T02:58:55.151Z,8.70
2023-04-22T03:03:56.961Z,8.76
2023-04-22T03:08:59.111Z,8.66
2023-04-22T03:14:00.785Z,8.58
2023-04-22T03:19:02.691Z,8.74
2023-04-22T03:24:04.521Z,8.69
2023-04-22T03:29:08.048Z,8.67
2023-04-22T03:34:09.820Z,8.68
2023-04-22T03:39:13.223Z,8.53
2023-04-22T03:44:16.613Z,8.56
2023-04-22T03:49:19.693Z,8.46
2023-04-22T03:54:21.748Z,8.41
2023-04-22T03:59:27.072Z,8.29
2023-04-22T04:04:30.292Z,8.38
2023-04-22T04:09:35.706Z,8.22
2023-04-22T04:14:37.421Z,8.47
2023-04-22T04:19:40.894Z,8.48
2023-04-22T04:24:44.140Z,8.56
2023-04-22T04:29:52.641Z,8.61
2023-04-22T04:35:09.992Z,8.73
2023-04-22T04:40:14.179Z,8.73
2023-04-22T04:45:34.377Z,8.66
2023-04-22T04:50:36.239Z,8.64
2023-04-22T04:55:38.764Z,8.59
2023-04-22T05:00:45.936Z,8.56
2023-04-22T05:05:49.846Z,8.58
2023-04-22T05:10:51.925Z,8.69
2023-04-22T05:15:54.457Z,8.71
2023-04-22T05:21:00.196Z,8.69
2023-04-22T05:26:02.065Z,8.51
2023-04-22T05:31:05.375Z,8.57
2023-04-22T05:36:07.386Z,8.60
2023-04-22T05:41:10.173Z,8.61
2023-04-22T05:46:11.909Z,8.51
2023-04-22T05:51:15.789Z,8.42
2023-04-22T05:56:17.682Z,8.40
2023-04-22T06:01:19.493Z,8.49
2023-04-22T06:06:34.286Z,8.64
2023-04-22T06:11:35.955Z,8.55
2023-04-22T06:16:38.738Z,8.54
2023-04-22T06:21:43.459Z,8.71
2023-04-22T06:26:45.257Z,8.52
2023-04-22T06:31:47.443Z,8.60
2023-04-22T06:36:49.189Z,8.90
2023-04-22T06:41:50.986Z,8.94
2023-04-22T06:47:07.895Z,9.06
2023-04-22T06:52:23.997Z,9.08
2023-04-22T06:57:28.430Z,9.07
2023-04-22T07:02:30.185Z,9.09
2023-04-22T07:07:32.060Z,9.23
2023-04-22T07:12:33.718Z,9.25
2023-04-22T07:17:35.507Z,9.26
2023-04-22T07:22:37.160Z,9.30
2023-04-22T07:27:38.826Z,9.36
2023-04-22T07:32:40.535Z,9.41
2023-04-22T07:37:44.972Z,9.61
2023-04-22T07:42:46.705Z,9.73
2023-04-22T07:47:48.433Z,9.99
2023-04-22T07:52:50.433Z,9.92
2023-04-22T07:57:52.069Z,10.10
2023-04-22T08:02:55.821Z,10.14
2023-04-22T08:07:57.552Z,10.34
2023-04-22T08:12:59.205Z,10.75
2023-04-22T08:18:00.923Z,10.96
2023-04-22T08:23:02.675Z,11.28
2023-04-22T08:28:04.342Z,11.29
2023-04-22T08:33:06.115Z,11.70
2023-04-22T08:38:07.795Z,11.97
2023-04-22T08:43:09.917Z,12.01
2023-04-22T08:48:13.929Z,12.08
2023-04-22T08:53:15.881Z,12.15
2023-04-22T08:58:17.799Z,12.02
2023-04-22T09:03:20.579Z,12.20
2023-04-22T09:08:22.477Z,12.55
2023-04-22T09:13:25.969Z,12.90
2023-04-22T09:18:27.754Z,12.95
2023-04-22T09:23:29.502Z,13.18
2023-04-22T09:28:31.275Z,13.24
2023-04-22T09:33:39.661Z,13.07
2023-04-22T09:38:41.726Z,13.37
2023-04-22T09:43:45.517Z,13.57
2023-04-22T09:48:47.449Z,13.74
2023-04-22T09:53:59.331Z,13.35
2023-04-22T09:59:01.425Z,13.18
2023-04-22T10:04:03.324Z,13.11
2023-04-22T10:09:06.150Z,13.06
2023-04-22T10:14:14.863Z,13.01
2023-04-22T10:19:21.145Z,12.89
2023-04-22T10:24:26.348Z,13.03
2023-04-22T10:29:36.651Z,13.09
2023-04-22T10:34:41.722Z,13.22
2023-04-22T10:40:08.747Z,12.89
2023-04-22T10:45:16.192Z,12.61
2023-04-22T10:50:31.527Z,12.76
2023-04-22T10:56:00.919Z,12.78
2023-04-22T11:01:15.136Z,12.60
2023-04-22T11:06:19.217Z,12.56
2023-04-22T11:11:20.918Z,12.63
2023-04-22T11:16:22.908Z,12.80
2023-04-22T11:21:24.971Z,12.45
2023-04-22T11:26:35.210Z,12.58
2023-04-22T11:31:36.962Z,12.31
2023-04-22T11:36:38.591Z,12.16
2023-04-22T11:41:41.733Z,12.17
2023-04-22T11:46:44.949Z,12.27
2023-04-22T11:51:56.505Z,12.00
2023-04-22T11:56:58.291Z,11.90
2023-04-22T12:02:00.317Z,11.71
2023-04-22T12:07:03.723Z,11.57
2023-04-22T12:12:05.606Z,11.47
2023-04-22T12:17:12.143Z,11.50
2023-04-22T12:22:27.468Z,11.43
2023-04-22T12:27:29.350Z,11.42
2023-04-22T12:32:30.975Z,11.33
2023-04-22T12:37:32.812Z,11.39
2023-04-22T12:42:34.446Z,11.19
2023-04-22T12:47:37.422Z,11.34
2023-04-22T12:52:39.355Z,11.60
2023-04-22T12:57:43.304Z,11.45
2023-04-22T13:02:48.197Z,11.30
2023-04-22T13:07:56.425Z,11.11
2023-04-22T13:13:17.578Z,11.11
2023-04-22T13:18:20.169Z,11.12
2023-04-22T13:23:23.364Z,11.29
2023-04-22T13:28:25.767Z,11.15
2023-04-22T13:33:27.471Z,11.11
2023-04-22T13:38:29.128Z,11.19
2023-04-22T13:43:30.922Z,11.11
2023-04-22T13:48:32.539Z,11.18
2023-04-22T13:53:34.682Z,11.18
2023-04-22T13:58:36.562Z,11.12
2023-04-22T14:03:40.645Z,10.99
2023-04-22T14:08:43.153Z,10.98
2023-04-22T14:13:45.359Z,10.91
2023-04-22T14:18:47.935Z,10.98
2023-04-22T14:23:49.929Z,11.05
2023-04-22T14:28:51.533Z,10.97
2023-04-22T14:33:53.336Z,10.99
2023-04-22T14:38:54.882Z,10.95
2023-04-22T14:43:57.069Z,10.96
2023-04-22T14:48:58.657Z,10.94
2023-04-22T14:54:00.296Z,11.00
2023-04-22T14:59:01.923Z,10.92
2023-04-22T15:04:03.728Z,10.79
2023-04-22T15:09:05.586Z,10.86
2023-04-22T15:14:07.271Z,10.74
2023-04-22T15:19:08.944Z,10.74
2023-04-22T15:24:11.450Z,10.76
2023-04-22T15:29:13.886Z,10.72
2023-04-22T15:34:15.855Z,10.71
2023-04-22T15:39:17.533Z,10.82
2023-04-22T15:44:19.315Z,10.93
2023-04-22T15:49:21.087Z,10.94
2023-04-22T15:54:22.738Z,10.93
2023-04-22T15:59:24.370Z,10.96
2023-04-22T16:04:26.373Z,10.98
2023-04-22T16:09:28.094Z,11.04
2023-04-22T16:14:29.726Z,11.11
2023-04-22T16:19:31.412Z,11.09
2023-04-22T16:24:33.140Z,11.07
2023-04-22T16:29:34.703Z,11.17
2023-04-22T16:34:36.986Z,11.21
2023-04-22T16:39:38.724Z,11.23
2023-04-22T16:44:40.448Z,11.38
2023-04-22T16:49:42.704Z,11.32
2023-04-22T16:54:45.064Z,11.29
2023-04-22T16:59:46.654Z,11.24
2023-04-22T17:04:48.364Z,11.25
2023-04-22T17:09:50.034Z,11.20
2023-04-22T17:14:51.721Z,11.26
2023-04-22T17:19:53.375Z,11.19
2023-04-22T17:24:56.723Z,11.26
2023-04-22T17:29:58.374Z,11.26
2023-04-22T17:35:00.218Z,11.32
2023-04-22T17:40:02.960Z,11.36
2023-04-22T17:45:08.164Z,11.08
2023-04-22T17:50:09.961Z,11.26
2023-04-22T17:55:11.814Z,11.25
2023-04-22T18:00:18.162Z,11.16
2023-04-22T18:05:20.569Z,10.98
2023-04-22T18:10:22.310Z,10.87
2023-04-22T18:15:24.009Z,10.92
2023-04-22T18:20:25.727Z,10.89
2023-04-22T18:25:27.752Z,10.78
2023-04-22T18:30:30.827Z,10.56
2023-04-22T18:35:35.318Z,10.43
2023-04-22T18:40:36.935Z,10.34
2023-04-22T18:45:38.659Z,10.25
2023-04-22T18:50:40.398Z,10.32
2023-04-22T18:55:46.016Z,10.28
2023-04-22T19:00:47.652Z,10.30
2023-04-22T19:05:49.216Z,10.18
2023-04-22T19:10:50.907Z,10.07
2023-04-22T19:15:52.717Z,9.92
2023-04-22T19:20:54.470Z,9.97
2023-04-22T19:25:56.097Z,9.97
2023-04-22T19:31:00.043Z,9.82
2023-04-22T19:36:01.713Z,9.92
2023-04-22T19:41:03.366Z,9.86
2023-04-22T19:46:05.334Z,9.80
2023-04-22T19:51:07.152Z,9.73
2023-04-22T19:56:09.487Z,9.69
2023-04-22T20:01:13.012Z,9.72
2023-04-22T20:06:16.426Z,9.63
2023-04-22T20:11:18.096Z,9.66
2023-04-22T20:16:20.912Z,9.59
2023-04-22T20:21:23.126Z,9.57
2023-04-22T20:26:28.327Z,9.57
2023-04-22T20:31:30.491Z,9.44
2023-04-22T20:36:32.880Z,9.36
2023-04-22T20:41:40.536Z,9.36
2023-04-22T20:46:42.900Z,9.32
2023-04-22T20:51:44.811Z,9.41
2023-04-22T20:56:47.260Z,9.22
2023-04-22T21:01:50.050Z,9.13
2023-04-22T21:06:52.739Z,9.23
2023-04-22T21:11:54.706Z,9.23
2023-04-22T21:16:59.785Z,9.30
2023-04-22T21:22:07.314Z,9.29
2023-04-22T21:27:09.589Z,8.96
2023-04-22T21:32:11.417Z,8.89
2023-04-22T21:37:14.058Z,9.00
2023-04-22T21:42:15.690Z,9.05
2023-04-22T21:47:18.305Z,8.80
2023-04-22T21:52:19.967Z,8.95
2023-04-22T21:57:21.613Z,8.80
2023-04-22T22:02:23.623Z,8.73
2023-04-22T22:07:26.932Z,8.68
2023-04-22T22:12:28.597Z,8.75
2023-04-22T22:17:30.283Z,8.61
2023-04-22T22:22:33.048Z,8.60
2023-04-22T22:27:36.844Z,8.60
2023-04-22T22:32:38.548Z,8.50
2023-04-22T22:37:48.372Z,8.43
2023-04-22T22:42:50.079Z,8.34
2023-04-22T22:47:53.546Z,8.37
2023-04-22T22:52:55.525Z,8.37
2023-04-22T22:57:57.190Z,8.33
2023-04-22T23:02:59.148Z,8.32
2023-04-22T23:08:00.943Z,8.27
2023-04-22T23:13:02.635Z,8.27
2023-04-22T23:18:04.319Z,8.29
2023-04-22T23:23:06.297Z,8.31
2023-04-22T23:28:08.158Z,8.29
2023-04-22T23:33:14.918Z,8.28
2023-04-22T23:38:16.713Z,8.30
2023-04-22T23:43:18.316Z,8.31
2023-04-22T23:48:19.940Z,8.35
2023-04-22T23:53:21.558Z,8.33
2023-04-22T23:58:23.335Z,8.35
